sensor_id;sensor_type;location;lat;lon;timestamp;P1;durP1;ratioP1;P2;durP2;ratioP2
37529;SDS011;23374;52.758;6.872;2022-10-19T00:01:07;4.00;;;1.10;;
37529;SDS011;23374;52.758;6.872;2022-10-19T00:03:35;3.83;;;0.90;;
37529;SDS011;23374;52.758;6.872;2022-10-19T00:05:57;3.47;;;1.20;;
37529;SDS011;23374;52.758;6.872;2022-10-19T00:08:17;6.73;;;1.10;;
37529;SDS011;23374;52.758;6.872;2022-10-19T00:10:39;6.40;;;1.23;;
37529;SDS011;23374;52.758;6.872;2022-10-19T00:13:00;3.03;;;1.03;;
37529;SDS011;23374;52.758;6.872;2022-10-19T00:15:20;2.93;;;0.83;;
37529;SDS011;23374;52.758;6.872;2022-10-19T00:17:40;3.10;;;1.00;;
37529;SDS011;23374;52.758;6.872;2022-10-19T00:20:02;2.73;;;1.10;;
37529;SDS011;23374;52.758;6.872;2022-10-19T00:22:23;3.27;;;1.13;;
37529;SDS011;23374;52.758;6.872;2022-10-19T00:24:43;4.60;;;1.07;;
37529;SDS011;23374;52.758;6.872;2022-10-19T00:27:04;4.57;;;0.80;;
37529;SDS011;23374;52.758;6.872;2022-10-19T00:29:25;4.33;;;1.13;;
37529;SDS011;23374;52.758;6.872;2022-10-19T00:31:48;4.10;;;0.80;;
37529;SDS011;23374;52.758;6.872;2022-10-19T00:34:09;6.40;;;1.20;;
37529;SDS011;23374;52.758;6.872;2022-10-19T00:36:32;5.03;;;0.97;;
37529;SDS011;23374;52.758;6.872;2022-10-19T00:38:54;1.07;;;0.73;;
37529;SDS011;23374;52.758;6.872;2022-10-19T00:41:17;5.00;;;1.00;;
37529;SDS011;23374;52.758;6.872;2022-10-19T00:47:09;1.43;;;0.77;;
37529;SDS011;23374;52.758;6.872;2022-10-19T00:49:36;5.17;;;1.17;;
37529;SDS011;23374;52.758;6.872;2022-10-19T00:52:03;8.80;;;1.27;;
37529;SDS011;23374;52.758;6.872;2022-10-19T00:54:26;2.03;;;0.93;;
37529;SDS011;23374;52.758;6.872;2022-10-19T00:56:49;2.60;;;0.90;;
37529;SDS011;23374;52.758;6.872;2022-10-19T00:59:16;8.20;;;1.17;;
37529;SDS011;23374;52.758;6.872;2022-10-19T01:01:39;1.60;;;0.90;;
37529;SDS011;23374;52.758;6.872;2022-10-19T01:04:00;2.23;;;1.10;;
37529;SDS011;23374;52.758;6.872;2022-10-19T01:06:22;7.50;;;1.10;;
37529;SDS011;23374;52.758;6.872;2022-10-19T01:08:44;3.40;;;0.93;;
37529;SDS011;23374;52.758;6.872;2022-10-19T01:11:49;2.43;;;0.90;;
37529;SDS011;23374;52.758;6.872;2022-10-19T01:17:05;3.57;;;1.10;;
37529;SDS011;23374;52.758;6.872;2022-10-19T01:20:03;4.60;;;1.30;;
37529;SDS011;23374;52.758;6.872;2022-10-19T01:30:56;1.27;;;1.00;;
37529;SDS011;23374;52.758;6.872;2022-10-19T01:33:49;3.50;;;1.10;;
37529;SDS011;23374;52.758;6.872;2022-10-19T01:36:56;3.73;;;1.33;;
37529;SDS011;23374;52.758;6.872;2022-10-19T01:42:19;5.63;;;1.33;;
37529;SDS011;23374;52.758;6.872;2022-10-19T01:46:20;3.40;;;1.17;;
37529;SDS011;23374;52.758;6.872;2022-10-19T01:49:04;3.33;;;1.70;;
37529;SDS011;23374;52.758;6.872;2022-10-19T01:51:33;3.83;;;1.40;;
37529;SDS011;23374;52.758;6.872;2022-10-19T01:54:00;2.27;;;1.40;;
37529;SDS011;23374;52.758;6.872;2022-10-19T01:56:25;4.07;;;1.47;;
37529;SDS011;23374;52.758;6.872;2022-10-19T01:58:48;7.30;;;1.70;;
37529;SDS011;23374;52.758;6.872;2022-10-19T02:01:14;2.30;;;1.40;;
37529;SDS011;23374;52.758;6.872;2022-10-19T02:03:38;6.60;;;1.67;;
37529;SDS011;23374;52.758;6.872;2022-10-19T02:06:01;10.67;;;1.80;;
37529;SDS011;23374;52.758;6.872;2022-10-19T02:08:30;2.90;;;1.40;;
37529;SDS011;23374;52.758;6.872;2022-10-19T02:10:58;5.37;;;1.27;;
37529;SDS011;23374;52.758;6.872;2022-10-19T02:13:19;8.30;;;2.00;;
37529;SDS011;23374;52.758;6.872;2022-10-19T02:15:43;2.10;;;1.10;;
37529;SDS011;23374;52.758;6.872;2022-10-19T02:18:09;2.23;;;1.20;;
37529;SDS011;23374;52.758;6.872;2022-10-19T02:20:31;3.10;;;1.20;;
37529;SDS011;23374;52.758;6.872;2022-10-19T02:22:55;5.93;;;1.40;;
37529;SDS011;23374;52.758;6.872;2022-10-19T02:25:15;3.13;;;1.10;;
37529;SDS011;23374;52.758;6.872;2022-10-19T02:27:37;2.10;;;1.27;;
37529;SDS011;23374;52.758;6.872;2022-10-19T02:30:01;2.53;;;1.43;;
37529;SDS011;23374;52.758;6.872;2022-10-19T02:32:22;4.60;;;1.23;;
37529;SDS011;23374;52.758;6.872;2022-10-19T02:34:42;6.33;;;1.60;;
37529;SDS011;23374;52.758;6.872;2022-10-19T02:37:03;2.10;;;1.30;;
37529;SDS011;23374;52.758;6.872;2022-10-19T02:39:24;1.97;;;1.30;;
37529;SDS011;23374;52.758;6.872;2022-10-19T02:41:48;2.53;;;1.27;;
37529;SDS011;23374;52.758;6.872;2022-10-19T02:44:50;4.80;;;1.73;;
37529;SDS011;23374;52.758;6.872;2022-10-19T02:47:24;2.50;;;1.50;;
37529;SDS011;23374;52.758;6.872;2022-10-19T02:49:48;3.57;;;1.70;;
37529;SDS011;23374;52.758;6.872;2022-10-19T02:52:10;5.00;;;1.30;;
37529;SDS011;23374;52.758;6.872;2022-10-19T02:54:32;2.57;;;1.37;;
37529;SDS011;23374;52.758;6.872;2022-10-19T02:56:53;5.03;;;1.70;;
37529;SDS011;23374;52.758;6.872;2022-10-19T02:59:14;4.17;;;1.60;;
37529;SDS011;23374;52.758;6.872;2022-10-19T03:01:35;3.03;;;1.20;;
37529;SDS011;23374;52.758;6.872;2022-10-19T03:03:55;3.00;;;1.40;;
37529;SDS011;23374;52.758;6.872;2022-10-19T03:06:16;4.00;;;1.53;;
37529;SDS011;23374;52.758;6.872;2022-10-19T03:08:37;2.23;;;1.20;;
37529;SDS011;23374;52.758;6.872;2022-10-19T03:10:58;6.10;;;1.30;;
37529;SDS011;23374;52.758;6.872;2022-10-19T03:13:19;2.60;;;1.17;;
37529;SDS011;23374;52.758;6.872;2022-10-19T03:15:39;4.87;;;1.50;;
37529;SDS011;23374;52.758;6.872;2022-10-19T03:17:59;4.83;;;1.23;;
37529;SDS011;23374;52.758;6.872;2022-10-19T03:20:19;3.90;;;1.30;;
37529;SDS011;23374;52.758;6.872;2022-10-19T03:22:39;5.80;;;1.30;;
37529;SDS011;23374;52.758;6.872;2022-10-19T03:24:59;5.60;;;1.60;;
37529;SDS011;23374;52.758;6.872;2022-10-19T03:27:20;5.73;;;1.60;;
37529;SDS011;23374;52.758;6.872;2022-10-19T03:29:40;4.23;;;1.10;;
37529;SDS011;23374;52.758;6.872;2022-10-19T03:32:01;3.07;;;1.03;;
37529;SDS011;23374;52.758;6.872;2022-10-19T03:34:21;5.33;;;1.70;;
37529;SDS011;23374;52.758;6.872;2022-10-19T03:36:42;4.10;;;1.17;;
37529;SDS011;23374;52.758;6.872;2022-10-19T03:39:04;6.17;;;1.23;;
37529;SDS011;23374;52.758;6.872;2022-10-19T03:41:29;2.53;;;1.27;;
37529;SDS011;23374;52.758;6.872;2022-10-19T03:43:51;5.13;;;1.20;;
37529;SDS011;23374;52.758;6.872;2022-10-19T03:46:11;3.80;;;1.50;;
37529;SDS011;23374;52.758;6.872;2022-10-19T03:48:32;2.90;;;1.10;;
37529;SDS011;23374;52.758;6.872;2022-10-19T03:51:06;7.50;;;1.20;;
37529;SDS011;23374;52.758;6.872;2022-10-19T03:53:28;3.10;;;1.30;;
37529;SDS011;23374;52.758;6.872;2022-10-19T03:55:50;5.37;;;1.50;;
37529;SDS011;23374;52.758;6.872;2022-10-19T03:58:10;7.97;;;1.33;;
37529;SDS011;23374;52.758;6.872;2022-10-19T04:00:31;6.60;;;1.60;;
37529;SDS011;23374;52.758;6.872;2022-10-19T04:02:51;8.70;;;1.70;;
37529;SDS011;23374;52.758;6.872;2022-10-19T04:05:12;1.83;;;1.10;;
37529;SDS011;23374;52.758;6.872;2022-10-19T04:07:32;5.90;;;1.40;;
37529;SDS011;23374;52.758;6.872;2022-10-19T04:09:52;4.00;;;1.17;;
37529;SDS011;23374;52.758;6.872;2022-10-19T04:12:12;3.40;;;0.97;;
37529;SDS011;23374;52.758;6.872;2022-10-19T04:14:33;3.43;;;1.10;;
37529;SDS011;23374;52.758;6.872;2022-10-19T04:16:53;5.97;;;1.20;;
37529;SDS011;23374;52.758;6.872;2022-10-19T04:19:14;6.53;;;1.40;;
37529;SDS011;23374;52.758;6.872;2022-10-19T04:21:36;2.93;;;1.20;;
37529;SDS011;23374;52.758;6.872;2022-10-19T04:24:02;5.70;;;1.10;;
37529;SDS011;23374;52.758;6.872;2022-10-19T04:26:27;5.27;;;1.67;;
37529;SDS011;23374;52.758;6.872;2022-10-19T04:28:48;4.70;;;1.20;;
37529;SDS011;23374;52.758;6.872;2022-10-19T04:31:09;3.50;;;1.07;;
37529;SDS011;23374;52.758;6.872;2022-10-19T04:33:31;3.17;;;1.53;;
37529;SDS011;23374;52.758;6.872;2022-10-19T04:36:00;7.10;;;1.50;;
37529;SDS011;23374;52.758;6.872;2022-10-19T04:38:23;3.97;;;1.30;;
37529;SDS011;23374;52.758;6.872;2022-10-19T04:40:43;2.70;;;1.57;;
37529;SDS011;23374;52.758;6.872;2022-10-19T04:43:03;3.43;;;1.50;;
37529;SDS011;23374;52.758;6.872;2022-10-19T04:45:24;1.50;;;1.10;;
37529;SDS011;23374;52.758;6.872;2022-10-19T04:47:44;3.93;;;1.37;;
37529;SDS011;23374;52.758;6.872;2022-10-19T04:50:05;5.33;;;1.17;;
37529;SDS011;23374;52.758;6.872;2022-10-19T04:52:25;5.60;;;1.20;;
37529;SDS011;23374;52.758;6.872;2022-10-19T04:54:46;2.53;;;1.10;;
37529;SDS011;23374;52.758;6.872;2022-10-19T04:57:06;5.43;;;1.30;;
37529;SDS011;23374;52.758;6.872;2022-10-19T04:59:26;2.77;;;1.23;;
37529;SDS011;23374;52.758;6.872;2022-10-19T05:01:46;3.33;;;1.30;;
37529;SDS011;23374;52.758;6.872;2022-10-19T05:04:08;5.47;;;1.27;;
37529;SDS011;23374;52.758;6.872;2022-10-19T05:06:29;3.07;;;1.03;;
37529;SDS011;23374;52.758;6.872;2022-10-19T05:08:50;3.43;;;1.23;;
37529;SDS011;23374;52.758;6.872;2022-10-19T05:11:13;4.87;;;1.53;;
37529;SDS011;23374;52.758;6.872;2022-10-19T05:13:34;1.83;;;1.23;;
37529;SDS011;23374;52.758;6.872;2022-10-19T05:15:57;5.97;;;1.40;;
37529;SDS011;23374;52.758;6.872;2022-10-19T05:18:18;2.17;;;1.30;;
37529;SDS011;23374;52.758;6.872;2022-10-19T05:20:38;2.90;;;1.37;;
37529;SDS011;23374;52.758;6.872;2022-10-19T05:22:59;1.63;;;1.07;;
37529;SDS011;23374;52.758;6.872;2022-10-19T05:25:19;5.60;;;1.47;;
37529;SDS011;23374;52.758;6.872;2022-10-19T05:27:39;4.07;;;1.50;;
37529;SDS011;23374;52.758;6.872;2022-10-19T05:30:00;5.13;;;1.20;;
37529;SDS011;23374;52.758;6.872;2022-10-19T05:32:20;2.53;;;1.13;;
37529;SDS011;23374;52.758;6.872;2022-10-19T05:34:40;3.40;;;1.30;;
37529;SDS011;23374;52.758;6.872;2022-10-19T05:37:00;3.57;;;1.27;;
37529;SDS011;23374;52.758;6.872;2022-10-19T05:39:21;2.40;;;1.37;;
37529;SDS011;23374;52.758;6.872;2022-10-19T05:41:42;5.60;;;1.60;;
37529;SDS011;23374;52.758;6.872;2022-10-19T05:44:03;2.63;;;1.10;;
37529;SDS011;23374;52.758;6.872;2022-10-19T05:46:25;5.73;;;1.57;;
37529;SDS011;23374;52.758;6.872;2022-10-19T05:48:47;3.43;;;1.57;;
37529;SDS011;23374;52.758;6.872;2022-10-19T05:51:09;4.47;;;1.27;;
37529;SDS011;23374;52.758;6.872;2022-10-19T05:53:32;1.83;;;1.03;;
37529;SDS011;23374;52.758;6.872;2022-10-19T05:55:53;4.53;;;1.17;;
37529;SDS011;23374;52.758;6.872;2022-10-19T05:58:14;2.03;;;1.10;;
37529;SDS011;23374;52.758;6.872;2022-10-19T06:00:34;3.33;;;1.03;;
37529;SDS011;23374;52.758;6.872;2022-10-19T06:02:55;10.10;;;1.60;;
37529;SDS011;23374;52.758;6.872;2022-10-19T06:05:15;4.30;;;1.43;;
37529;SDS011;23374;52.758;6.872;2022-10-19T06:07:35;3.27;;;1.30;;
37529;SDS011;23374;52.758;6.872;2022-10-19T06:09:56;3.20;;;1.03;;
37529;SDS011;23374;52.758;6.872;2022-10-19T06:12:17;8.03;;;1.50;;
37529;SDS011;23374;52.758;6.872;2022-10-19T06:14:38;4.07;;;1.13;;
37529;SDS011;23374;52.758;6.872;2022-10-19T06:16:59;5.87;;;1.03;;
37529;SDS011;23374;52.758;6.872;2022-10-19T06:19:19;5.87;;;1.50;;
37529;SDS011;23374;52.758;6.872;2022-10-19T06:21:39;6.67;;;1.40;;
37529;SDS011;23374;52.758;6.872;2022-10-19T06:24:03;3.60;;;1.03;;
37529;SDS011;23374;52.758;6.872;2022-10-19T06:26:25;3.13;;;0.93;;
37529;SDS011;23374;52.758;6.872;2022-10-19T06:28:47;4.80;;;1.20;;
37529;SDS011;23374;52.758;6.872;2022-10-19T06:31:08;5.67;;;1.20;;
37529;SDS011;23374;52.758;6.872;2022-10-19T06:33:30;6.30;;;1.40;;
37529;SDS011;23374;52.758;6.872;2022-10-19T06:35:50;7.00;;;1.50;;
37529;SDS011;23374;52.758;6.872;2022-10-19T06:38:10;3.10;;;1.47;;
37529;SDS011;23374;52.758;6.872;2022-10-19T06:40:33;5.10;;;1.23;;
37529;SDS011;23374;52.758;6.872;2022-10-19T06:42:54;4.90;;;1.37;;
37529;SDS011;23374;52.758;6.872;2022-10-19T06:45:15;6.03;;;1.40;;
37529;SDS011;23374;52.758;6.872;2022-10-19T06:47:36;4.57;;;1.30;;
37529;SDS011;23374;52.758;6.872;2022-10-19T06:49:56;11.87;;;1.37;;
37529;SDS011;23374;52.758;6.872;2022-10-19T06:52:17;8.60;;;1.40;;
37529;SDS011;23374;52.758;6.872;2022-10-19T06:54:37;3.07;;;1.33;;
37529;SDS011;23374;52.758;6.872;2022-10-19T06:56:58;4.13;;;0.90;;
37529;SDS011;23374;52.758;6.872;2022-10-19T06:59:19;9.93;;;1.57;;
37529;SDS011;23374;52.758;6.872;2022-10-19T07:01:39;6.97;;;1.37;;
37529;SDS011;23374;52.758;6.872;2022-10-19T07:03:59;8.13;;;1.43;;
37529;SDS011;23374;52.758;6.872;2022-10-19T07:06:21;8.17;;;1.50;;
37529;SDS011;23374;52.758;6.872;2022-10-19T07:08:42;3.33;;;1.50;;
37529;SDS011;23374;52.758;6.872;2022-10-19T07:11:16;7.27;;;1.37;;
37529;SDS011;23374;52.758;6.872;2022-10-19T07:13:38;14.27;;;1.40;;
37529;SDS011;23374;52.758;6.872;2022-10-19T07:16:06;9.40;;;1.63;;
37529;SDS011;23374;52.758;6.872;2022-10-19T07:18:30;6.77;;;1.53;;
37529;SDS011;23374;52.758;6.872;2022-10-19T07:20:57;7.20;;;1.57;;
37529;SDS011;23374;52.758;6.872;2022-10-19T07:23:19;7.47;;;1.80;;
37529;SDS011;23374;52.758;6.872;2022-10-19T07:25:39;11.50;;;1.87;;
37529;SDS011;23374;52.758;6.872;2022-10-19T07:27:59;8.90;;;1.97;;
37529;SDS011;23374;52.758;6.872;2022-10-19T07:30:19;6.30;;;1.87;;
37529;SDS011;23374;52.758;6.872;2022-10-19T07:32:39;6.80;;;1.70;;
37529;SDS011;23374;52.758;6.872;2022-10-19T07:34:59;6.53;;;1.60;;
37529;SDS011;23374;52.758;6.872;2022-10-19T07:37:20;9.07;;;1.97;;
37529;SDS011;23374;52.758;6.872;2022-10-19T07:39:40;8.50;;;1.47;;
37529;SDS011;23374;52.758;6.872;2022-10-19T07:42:01;5.93;;;1.17;;
37529;SDS011;23374;52.758;6.872;2022-10-19T07:44:21;4.57;;;1.60;;
37529;SDS011;23374;52.758;6.872;2022-10-19T07:46:42;9.07;;;1.43;;
37529;SDS011;23374;52.758;6.872;2022-10-19T07:49:04;2.60;;;0.83;;
37529;SDS011;23374;52.758;6.872;2022-10-19T07:51:28;6.40;;;0.93;;
37529;SDS011;23374;52.758;6.872;2022-10-19T07:53:49;4.03;;;1.10;;
37529;SDS011;23374;52.758;6.872;2022-10-19T07:56:15;7.40;;;1.13;;
37529;SDS011;23374;52.758;6.872;2022-10-19T07:58:41;6.50;;;1.30;;
37529;SDS011;23374;52.758;6.872;2022-10-19T08:01:13;6.43;;;0.93;;
37529;SDS011;23374;52.758;6.872;2022-10-19T08:03:35;8.80;;;1.10;;
37529;SDS011;23374;52.758;6.872;2022-10-19T08:06:00;7.03;;;0.93;;
37529;SDS011;23374;52.758;6.872;2022-10-19T08:08:25;7.20;;;0.93;;
37529;SDS011;23374;52.758;6.872;2022-10-19T08:10:45;7.60;;;1.40;;
37529;SDS011;23374;52.758;6.872;2022-10-19T08:13:05;6.20;;;1.40;;
37529;SDS011;23374;52.758;6.872;2022-10-19T08:15:27;6.20;;;1.10;;
37529;SDS011;23374;52.758;6.872;2022-10-19T08:17:49;8.10;;;1.50;;
37529;SDS011;23374;52.758;6.872;2022-10-19T08:20:09;5.57;;;1.20;;
37529;SDS011;23374;52.758;6.872;2022-10-19T08:22:30;14.10;;;2.13;;
37529;SDS011;23374;52.758;6.872;2022-10-19T08:24:50;5.60;;;1.20;;
37529;SDS011;23374;52.758;6.872;2022-10-19T08:27:10;5.20;;;1.10;;
37529;SDS011;23374;52.758;6.872;2022-10-19T08:29:31;5.93;;;1.23;;
37529;SDS011;23374;52.758;6.872;2022-10-19T08:31:51;2.80;;;0.97;;
37529;SDS011;23374;52.758;6.872;2022-10-19T08:34:12;3.63;;;0.83;;
37529;SDS011;23374;52.758;6.872;2022-10-19T08:36:33;5.93;;;1.30;;
37529;SDS011;23374;52.758;6.872;2022-10-19T08:38:54;7.37;;;1.00;;
37529;SDS011;23374;52.758;6.872;2022-10-19T08:42:02;7.40;;;0.77;;
37529;SDS011;23374;52.758;6.872;2022-10-19T08:45:01;3.97;;;1.00;;
37529;SDS011;23374;52.758;6.872;2022-10-19T08:51:11;8.30;;;1.03;;
37529;SDS011;23374;52.758;6.872;2022-10-19T08:53:53;5.30;;;0.97;;
37529;SDS011;23374;52.758;6.872;2022-10-19T08:57:59;6.47;;;0.90;;
37529;SDS011;23374;52.758;6.872;2022-10-19T09:08:16;8.43;;;1.17;;
37529;SDS011;23374;52.758;6.872;2022-10-19T09:10:39;10.67;;;0.77;;
37529;SDS011;23374;52.758;6.872;2022-10-19T09:13:15;4.03;;;0.73;;
37529;SDS011;23374;52.758;6.872;2022-10-19T09:15:56;4.97;;;0.70;;
37529;SDS011;23374;52.758;6.872;2022-10-19T09:18:26;1.67;;;0.77;;
37529;SDS011;23374;52.758;6.872;2022-10-19T09:20:50;6.20;;;0.80;;
37529;SDS011;23374;52.758;6.872;2022-10-19T09:24:05;3.77;;;1.37;;
37529;SDS011;23374;52.758;6.872;2022-10-19T09:26:40;6.70;;;0.87;;
37529;SDS011;23374;52.758;6.872;2022-10-19T09:29:23;2.67;;;0.53;;
37529;SDS011;23374;52.758;6.872;2022-10-19T09:32:46;4.60;;;0.90;;
37529;SDS011;23374;52.758;6.872;2022-10-19T09:35:52;2.17;;;0.90;;
37529;SDS011;23374;52.758;6.872;2022-10-19T09:38:15;6.93;;;1.13;;
37529;SDS011;23374;52.758;6.872;2022-10-19T09:40:35;2.43;;;0.90;;
37529;SDS011;23374;52.758;6.872;2022-10-19T09:42:55;5.23;;;1.00;;
37529;SDS011;23374;52.758;6.872;2022-10-19T09:46:05;3.37;;;1.10;;
37529;SDS011;23374;52.758;6.872;2022-10-19T09:48:39;6.43;;;1.37;;
37529;SDS011;23374;52.758;6.872;2022-10-19T09:51:14;2.43;;;0.73;;
37529;SDS011;23374;52.758;6.872;2022-10-19T09:53:36;4.57;;;1.00;;
37529;SDS011;23374;52.758;6.872;2022-10-19T09:55:59;3.83;;;1.23;;
37529;SDS011;23374;52.758;6.872;2022-10-19T09:58:25;2.87;;;0.97;;
37529;SDS011;23374;52.758;6.872;2022-10-19T10:00:48;3.90;;;0.80;;
37529;SDS011;23374;52.758;6.872;2022-10-19T10:03:31;2.10;;;0.87;;
37529;SDS011;23374;52.758;6.872;2022-10-19T10:06:13;1.50;;;0.70;;
37529;SDS011;23374;52.758;6.872;2022-10-19T10:08:37;1.77;;;0.73;;
37529;SDS011;23374;52.758;6.872;2022-10-19T10:11:12;2.33;;;0.77;;
37529;SDS011;23374;52.758;6.872;2022-10-19T10:13:48;6.93;;;1.10;;
37529;SDS011;23374;52.758;6.872;2022-10-19T10:16:13;4.33;;;1.00;;
37529;SDS011;23374;52.758;6.872;2022-10-19T10:18:50;3.67;;;0.77;;
37529;SDS011;23374;52.758;6.872;2022-10-19T10:21:27;5.57;;;1.03;;
37529;SDS011;23374;52.758;6.872;2022-10-19T10:24:26;6.43;;;0.83;;
37529;SDS011;23374;52.758;6.872;2022-10-19T10:26:53;4.90;;;0.93;;
37529;SDS011;23374;52.758;6.872;2022-10-19T10:29:24;5.30;;;0.80;;
37529;SDS011;23374;52.758;6.872;2022-10-19T10:32:12;0.87;;;0.50;;
37529;SDS011;23374;52.758;6.872;2022-10-19T10:34:54;5.43;;;1.17;;
37529;SDS011;23374;52.758;6.872;2022-10-19T10:37:34;5.33;;;0.83;;
37529;SDS011;23374;52.758;6.872;2022-10-19T10:40:00;5.13;;;0.90;;
37529;SDS011;23374;52.758;6.872;2022-10-19T10:42:35;2.97;;;1.20;;
37529;SDS011;23374;52.758;6.872;2022-10-19T10:45:00;2.30;;;0.83;;
37529;SDS011;23374;52.758;6.872;2022-10-19T10:47:22;2.50;;;0.63;;
37529;SDS011;23374;52.758;6.872;2022-10-19T10:49:53;4.10;;;0.90;;
37529;SDS011;23374;52.758;6.872;2022-10-19T10:52:21;2.17;;;0.27;;
37529;SDS011;23374;52.758;6.872;2022-10-19T10:55:16;3.67;;;0.60;;
37529;SDS011;23374;52.758;6.872;2022-10-19T10:57:45;5.37;;;1.07;;
37529;SDS011;23374;52.758;6.872;2022-10-19T11:00:21;1.87;;;0.90;;
37529;SDS011;23374;52.758;6.872;2022-10-19T11:02:58;5.10;;;0.67;;
37529;SDS011;23374;52.758;6.872;2022-10-19T11:05:47;5.23;;;0.90;;
37529;SDS011;23374;52.758;6.872;2022-10-19T11:08:26;1.43;;;0.50;;
37529;SDS011;23374;52.758;6.872;2022-10-19T11:11:34;2.90;;;0.67;;
37529;SDS011;23374;52.758;6.872;2022-10-19T11:18:43;4.47;;;0.90;;
37529;SDS011;23374;52.758;6.872;2022-10-19T11:21:14;1.23;;;0.60;;
37529;SDS011;23374;52.758;6.872;2022-10-19T11:24:06;3.37;;;1.00;;
37529;SDS011;23374;52.758;6.872;2022-10-19T11:27:20;0.57;;;0.30;;
37529;SDS011;23374;52.758;6.872;2022-10-19T11:30:08;2.37;;;0.73;;
37529;SDS011;23374;52.758;6.872;2022-10-19T11:32:49;1.73;;;0.80;;
37529;SDS011;23374;52.758;6.872;2022-10-19T11:38:50;5.67;;;1.00;;
37529;SDS011;23374;52.758;6.872;2022-10-19T11:51:44;7.93;;;2.00;;
37529;SDS011;23374;52.758;6.872;2022-10-19T11:54:41;4.73;;;1.10;;
37529;SDS011;23374;52.758;6.872;2022-10-19T11:57:50;2.53;;;1.13;;
37529;SDS011;23374;52.758;6.872;2022-10-19T12:00:24;5.50;;;1.80;;
37529;SDS011;23374;52.758;6.872;2022-10-19T12:17:53;2.20;;;1.10;;
37529;SDS011;23374;52.758;6.872;2022-10-19T12:20:43;4.37;;;1.60;;
37529;SDS011;23374;52.758;6.872;2022-10-19T12:23:24;2.10;;;1.23;;
37529;SDS011;23374;52.758;6.872;2022-10-19T12:25:49;3.10;;;1.10;;
37529;SDS011;23374;52.758;6.872;2022-10-19T12:28:19;3.43;;;1.10;;
37529;SDS011;23374;52.758;6.872;2022-10-19T12:30:43;5.67;;;1.57;;
37529;SDS011;23374;52.758;6.872;2022-10-19T12:37:28;4.30;;;1.30;;
37529;SDS011;23374;52.758;6.872;2022-10-19T12:40:33;8.67;;;1.60;;
37529;SDS011;23374;52.758;6.872;2022-10-19T12:52:46;2.30;;;0.97;;
37529;SDS011;23374;52.758;6.872;2022-10-19T12:55:22;5.43;;;1.27;;
37529;SDS011;23374;52.758;6.872;2022-10-19T12:58:04;5.37;;;1.37;;
37529;SDS011;23374;52.758;6.872;2022-10-19T13:00:36;3.83;;;1.53;;
37529;SDS011;23374;52.758;6.872;2022-10-19T13:03:13;3.00;;;1.70;;
37529;SDS011;23374;52.758;6.872;2022-10-19T13:05:40;3.43;;;1.63;;
37529;SDS011;23374;52.758;6.872;2022-10-19T13:08:02;3.27;;;1.40;;
37529;SDS011;23374;52.758;6.872;2022-10-19T13:10:25;3.23;;;1.83;;
37529;SDS011;23374;52.758;6.872;2022-10-19T13:12:47;3.20;;;1.50;;
37529;SDS011;23374;52.758;6.872;2022-10-19T13:15:49;5.07;;;2.30;;
37529;SDS011;23374;52.758;6.872;2022-10-19T13:18:11;4.40;;;2.03;;
37529;SDS011;23374;52.758;6.872;2022-10-19T13:20:53;3.40;;;2.13;;
37529;SDS011;23374;52.758;6.872;2022-10-19T13:24:14;5.17;;;1.70;;
37529;SDS011;23374;52.758;6.872;2022-10-19T13:26:44;4.77;;;2.33;;
37529;SDS011;23374;52.758;6.872;2022-10-19T13:29:25;4.93;;;2.80;;
37529;SDS011;23374;52.758;6.872;2022-10-19T13:31:47;1.63;;;1.10;;
37529;SDS011;23374;52.758;6.872;2022-10-19T13:34:09;3.63;;;2.43;;
37529;SDS011;23374;52.758;6.872;2022-10-19T13:36:33;5.20;;;2.80;;
37529;SDS011;23374;52.758;6.872;2022-10-19T13:39:02;9.67;;;3.03;;
37529;SDS011;23374;52.758;6.872;2022-10-19T13:41:42;7.30;;;2.60;;
37529;SDS011;23374;52.758;6.872;2022-10-19T13:45:18;6.63;;;3.60;;
37529;SDS011;23374;52.758;6.872;2022-10-19T13:47:41;3.77;;;3.00;;
37529;SDS011;23374;52.758;6.872;2022-10-19T13:50:32;4.33;;;3.43;;
37529;SDS011;23374;52.758;6.872;2022-10-19T13:55:44;2.30;;;1.40;;
37529;SDS011;23374;52.758;6.872;2022-10-19T14:01:48;5.10;;;2.30;;
37529;SDS011;23374;52.758;6.872;2022-10-19T14:06:21;8.10;;;2.57;;
37529;SDS011;23374;52.758;6.872;2022-10-19T14:13:22;2.70;;;1.97;;
37529;SDS011;23374;52.758;6.872;2022-10-19T14:15:51;5.90;;;1.90;;
37529;SDS011;23374;52.758;6.872;2022-10-19T14:22:47;4.43;;;1.80;;
37529;SDS011;23374;52.758;6.872;2022-10-19T14:25:26;3.53;;;2.00;;
37529;SDS011;23374;52.758;6.872;2022-10-19T14:27:53;3.20;;;1.67;;
37529;SDS011;23374;52.758;6.872;2022-10-19T14:30:31;1.93;;;1.23;;
37529;SDS011;23374;52.758;6.872;2022-10-19T14:32:54;3.67;;;1.20;;
37529;SDS011;23374;52.758;6.872;2022-10-19T14:35:22;0.50;;;0.37;;
37529;SDS011;23374;52.758;6.872;2022-10-19T14:37:46;3.17;;;1.40;;
37529;SDS011;23374;52.758;6.872;2022-10-19T14:40:31;3.87;;;0.83;;
37529;SDS011;23374;52.758;6.872;2022-10-19T14:42:59;5.80;;;1.00;;
37529;SDS011;23374;52.758;6.872;2022-10-19T14:45:27;1.57;;;0.73;;
37529;SDS011;23374;52.758;6.872;2022-10-19T14:48:03;5.20;;;1.07;;
37529;SDS011;23374;52.758;6.872;2022-10-19T14:50:52;3.43;;;0.97;;
37529;SDS011;23374;52.758;6.872;2022-10-19T14:53:41;2.37;;;1.00;;
37529;SDS011;23374;52.758;6.872;2022-10-19T14:56:14;2.57;;;0.90;;
37529;SDS011;23374;52.758;6.872;2022-10-19T14:59:10;1.17;;;0.60;;
37529;SDS011;23374;52.758;6.872;2022-10-19T15:01:49;2.60;;;0.90;;
37529;SDS011;23374;52.758;6.872;2022-10-19T15:04:19;6.30;;;0.60;;
37529;SDS011;23374;52.758;6.872;2022-10-19T15:07:02;2.73;;;0.70;;
37529;SDS011;23374;52.758;6.872;2022-10-19T15:09:42;2.53;;;0.80;;
37529;SDS011;23374;52.758;6.872;2022-10-19T15:12:17;4.50;;;0.80;;
37529;SDS011;23374;52.758;6.872;2022-10-19T15:14:40;8.00;;;0.90;;
37529;SDS011;23374;52.758;6.872;2022-10-19T15:17:02;0.93;;;0.70;;
37529;SDS011;23374;52.758;6.872;2022-10-19T15:22:38;3.33;;;0.70;;
37529;SDS011;23374;52.758;6.872;2022-10-19T15:25:44;6.03;;;0.80;;
37529;SDS011;23374;52.758;6.872;2022-10-19T15:28:31;5.37;;;0.93;;
37529;SDS011;23374;52.758;6.872;2022-10-19T15:30:58;1.30;;;0.70;;
37529;SDS011;23374;52.758;6.872;2022-10-19T15:33:20;1.97;;;0.70;;
37529;SDS011;23374;52.758;6.872;2022-10-19T15:35:42;0.90;;;0.57;;
37529;SDS011;23374;52.758;6.872;2022-10-19T15:40:55;2.27;;;0.70;;
37529;SDS011;23374;52.758;6.872;2022-10-19T15:44:39;4.10;;;0.90;;
37529;SDS011;23374;52.758;6.872;2022-10-19T15:49:54;6.17;;;0.77;;
37529;SDS011;23374;52.758;6.872;2022-10-19T15:52:25;5.93;;;1.00;;
37529;SDS011;23374;52.758;6.872;2022-10-19T15:54:53;4.23;;;0.80;;
37529;SDS011;23374;52.758;6.872;2022-10-19T15:57:35;3.20;;;1.40;;
37529;SDS011;23374;52.758;6.872;2022-10-19T15:59:58;5.20;;;1.20;;
37529;SDS011;23374;52.758;6.872;2022-10-19T16:02:21;3.90;;;1.23;;
37529;SDS011;23374;52.758;6.872;2022-10-19T16:04:43;4.33;;;1.00;;
37529;SDS011;23374;52.758;6.872;2022-10-19T16:07:03;4.40;;;1.20;;
37529;SDS011;23374;52.758;6.872;2022-10-19T16:09:24;2.60;;;1.00;;
37529;SDS011;23374;52.758;6.872;2022-10-19T16:11:44;5.87;;;1.40;;
37529;SDS011;23374;52.758;6.872;2022-10-19T16:14:05;3.10;;;0.93;;
37529;SDS011;23374;52.758;6.872;2022-10-19T16:16:30;5.70;;;1.23;;
37529;SDS011;23374;52.758;6.872;2022-10-19T16:18:52;3.83;;;1.30;;
37529;SDS011;23374;52.758;6.872;2022-10-19T16:21:13;4.03;;;1.30;;
37529;SDS011;23374;52.758;6.872;2022-10-19T16:23:34;3.00;;;1.00;;
37529;SDS011;23374;52.758;6.872;2022-10-19T16:25:56;3.97;;;1.40;;
37529;SDS011;23374;52.758;6.872;2022-10-19T16:28:17;3.00;;;1.27;;
37529;SDS011;23374;52.758;6.872;2022-10-19T16:30:38;3.67;;;1.40;;
37529;SDS011;23374;52.758;6.872;2022-10-19T16:32:58;2.77;;;1.33;;
37529;SDS011;23374;52.758;6.872;2022-10-19T16:35:18;3.03;;;1.23;;
37529;SDS011;23374;52.758;6.872;2022-10-19T16:37:39;4.70;;;1.40;;
37529;SDS011;23374;52.758;6.872;2022-10-19T16:39:59;6.43;;;1.50;;